createdAt,value
2022-08-03T00:02:20.116Z,49.95
2022-08-03T00:04:48.492Z,50.80
2022-08-03T00:07:17.146Z,50.54
2022-08-03T00:09:45.916Z,49.96
2022-08-03T00:12:14.674Z,50.36
2022-08-03T00:14:43.128Z,51.79
2022-08-03T00:17:11.844Z,51.47
2022-08-03T00:19:40.095Z,51.38
2022-08-03T00:22:08.353Z,51.20
2022-08-03T00:24:36.634Z,50.93
2022-08-03T00:27:04.877Z,50.62
2022-08-03T00:29:33.130Z,51.00
2022-08-03T00:32:21.374Z,50.75
2022-08-03T00:34:57.780Z,48.91
2022-08-03T00:37:41.401Z,50.78
2022-08-03T00:40:13.695Z,50.28
2022-08-03T00:43:08.892Z,50.96
2022-08-03T00:45:41.806Z,51.65
2022-08-03T00:48:32.215Z,51.44
2022-08-03T00:51:01.450Z,52.06
2022-08-03T00:53:30.078Z,52.29
2022-08-03T00:55:59.087Z,51.24
2022-08-03T00:58:27.394Z,52.05
2022-08-03T01:00:55.673Z,52.79
2022-08-03T01:03:23.920Z,53.07
2022-08-03T01:05:51.996Z,52.00
2022-08-03T01:08:55.963Z,53.03
2022-08-03T01:12:04.095Z,51.28
2022-08-03T01:14:51.670Z,52.16
2022-08-03T01:17:34.463Z,52.36
2022-08-03T01:20:09.664Z,52.93
2022-08-03T01:23:08.922Z,52.11
2022-08-03T01:26:14.702Z,52.39
2022-08-03T01:29:01.046Z,51.39
2022-08-03T01:31:34.948Z,52.79
2022-08-03T01:34:31.469Z,51.64
2022-08-03T01:37:06.138Z,51.94
2022-08-03T01:39:38.829Z,53.69
2022-08-03T01:42:11.660Z,51.44
2022-08-03T01:44:45.269Z,52.73
2022-08-03T01:47:16.246Z,53.44
2022-08-03T01:49:46.564Z,53.54
2022-08-03T01:52:20.210Z,54.43
2022-08-03T01:54:52.661Z,52.72
2022-08-03T01:57:25.365Z,53.27
2022-08-03T01:59:59.111Z,53.02
2022-08-03T02:02:33.972Z,52.59
2022-08-03T02:05:11.112Z,54.07
2022-08-03T02:07:42.563Z,52.43
2022-08-03T02:10:16.175Z,52.24
2022-08-03T02:13:06.786Z,52.33
2022-08-03T02:15:38.411Z,50.98
2022-08-03T02:18:10.774Z,51.29
2022-08-03T02:20:43.409Z,50.80
2022-08-03T02:23:12.043Z,51.66
2022-08-03T02:25:57.408Z,52.06
2022-08-03T02:28:37.226Z,51.57
2022-08-03T02:31:15.624Z,51.34
2022-08-03T02:33:51.301Z,54.33
2022-08-03T02:36:29.020Z,53.10
2022-08-03T02:39:01.689Z,53.36
2022-08-03T02:41:37.175Z,52.60
2022-08-03T02:44:10.900Z,52.38
2022-08-03T02:46:45.288Z,53.22
2022-08-03T02:49:42.055Z,52.69
2022-08-03T02:52:13.211Z,53.31
2022-08-03T02:54:48.727Z,52.55
2022-08-03T02:57:20.205Z,54.13
2022-08-03T02:59:50.620Z,52.26
2022-08-03T03:02:20.961Z,54.09
2022-08-03T03:05:50.918Z,53.54
2022-08-03T03:07:51.370Z,53.54
2022-08-03T03:10:25.947Z,53.12
2022-08-03T03:15:29.149Z,53.27
2022-08-03T03:18:00.348Z,53.74
2022-08-03T03:20:30.682Z,54.16
2022-08-03T03:23:01.176Z,53.55
2022-08-03T03:25:32.755Z,53.54
2022-08-03T03:28:02.976Z,52.57
2022-08-03T03:30:31.541Z,52.99
2022-08-03T03:32:59.974Z,52.09
2022-08-03T03:35:28.604Z,52.39
2022-08-03T03:37:57.333Z,52.53
2022-08-03T03:40:26.477Z,52.41
2022-08-03T03:45:24.610Z,53.21
2022-08-03T03:47:53.072Z,53.76
2022-08-03T03:50:24.095Z,54.18
2022-08-03T03:52:52.320Z,54.73
2022-08-03T03:55:20.536Z,54.98
2022-08-03T03:57:48.716Z,55.29
2022-08-03T04:00:19.673Z,55.12
2022-08-03T04:02:48.158Z,55.56
2022-08-03T04:05:34.798Z,54.86
2022-08-03T04:08:30.699Z,55.81
2022-08-03T04:11:20.681Z,55.23
2022-08-03T04:14:17.982Z,54.12
2022-08-03T04:16:59.119Z,54.37
2022-08-03T04:19:49.346Z,53.96
2022-08-03T04:22:27.869Z,54.85
2022-08-03T04:25:04.167Z,53.84
2022-08-03T04:27:38.976Z,53.91
2022-08-03T04:30:09.248Z,53.70
2022-08-03T04:32:45.462Z,53.69
2022-08-03T04:35:14.419Z,52.72
2022-08-03T04:37:49.282Z,53.69
2022-08-03T04:40:29.767Z,55.48
2022-08-03T04:43:00.747Z,54.05
2022-08-03T04:45:31.570Z,53.05
2022-08-03T04:48:02.099Z,52.76
2022-08-03T04:50:31.424Z,54.84
2022-08-03T04:53:06.717Z,52.44
2022-08-03T04:55:36.645Z,52.70
2022-08-03T04:58:05.203Z,52.59
2022-08-03T05:00:33.643Z,52.67
2022-08-03T05:03:01.897Z,54.41
2022-08-03T05:05:49.846Z,52.73
2022-08-03T05:08:20.591Z,54.74
2022-08-03T05:10:59.410Z,53.07
2022-08-03T05:13:27.960Z,53.25
2022-08-03T05:15:56.234Z,54.08
2022-08-03T05:18:24.516Z,51.67
2022-08-03T05:20:52.804Z,51.33
2022-08-03T05:23:21.049Z,51.52
2022-08-03T05:25:50.012Z,52.88
2022-08-03T05:28:18.918Z,51.41
2022-08-03T05:30:47.165Z,51.59
2022-08-03T05:33:15.454Z,51.40
2022-08-03T05:36:00.434Z,51.71
2022-08-03T05:38:35.004Z,50.45
2022-08-03T05:41:21.890Z,49.96
2022-08-03T05:43:54.244Z,50.44
2022-08-03T05:46:23.885Z,50.37
2022-08-03T05:48:52.304Z,50.31
2022-08-03T05:51:20.681Z,50.09
2022-08-03T05:53:49.189Z,49.36
2022-08-03T05:56:17.417Z,49.39
2022-08-03T05:58:48.461Z,48.48
2022-08-03T06:01:17.494Z,48.65
2022-08-03T06:03:46.676Z,47.98
2022-08-03T06:06:15.880Z,48.18
2022-08-03T06:08:46.077Z,47.30
2022-08-03T06:11:14.493Z,47.08
2022-08-03T06:13:43.324Z,46.85
2022-08-03T06:16:11.722Z,46.24
2022-08-03T06:18:41.125Z,45.84
2022-08-03T06:21:15.595Z,45.45
2022-08-03T06:23:52.391Z,45.02
2022-08-03T06:26:25.449Z,45.06
2022-08-03T06:28:55.013Z,44.15
2022-08-03T06:31:32.872Z,43.44
2022-08-03T06:34:32.544Z,43.73
2022-08-03T06:36:58.469Z,43.20
2022-08-03T06:39:30.301Z,43.68
2022-08-03T06:41:58.817Z,43.31
2022-08-03T06:44:27.168Z,42.80
2022-08-03T06:46:55.858Z,42.59
2022-08-03T06:49:24.223Z,42.02
2022-08-03T06:52:05.826Z,41.52
2022-08-03T06:54:36.114Z,42.44
2022-08-03T06:57:05.098Z,41.82
2022-08-03T07:00:07.870Z,41.16
2022-08-03T07:02:22.080Z,42.10
2022-08-03T07:04:50.547Z,39.89
2022-08-03T07:07:19.486Z,39.93
2022-08-03T07:09:56.349Z,40.49
2022-08-03T07:12:30.995Z,39.85
2022-08-03T07:15:02.648Z,40.51
2022-08-03T07:17:36.072Z,40.27
2022-08-03T07:20:08.791Z,40.55
2022-08-03T07:22:37.255Z,40.39
2022-08-03T07:25:07.311Z,39.10
2022-08-03T07:27:35.723Z,38.37
2022-08-03T07:30:07.726Z,38.61
2022-08-03T07:32:36.085Z,38.39
2022-08-03T07:35:25.267Z,37.99
2022-08-03T07:37:55.163Z,38.45
2022-08-03T07:40:23.627Z,38.19
2022-08-03T07:42:56.387Z,38.36
2022-08-03T07:45:26.485Z,37.66
2022-08-03T07:47:54.749Z,38.91
2022-08-03T07:50:23.410Z,37.63
2022-08-03T07:52:53.102Z,37.43
2022-08-03T07:55:25.145Z,37.61
2022-08-03T07:58:10.060Z,37.01
2022-08-03T08:00:39.518Z,36.67
2022-08-03T08:03:08.484Z,36.66
2022-08-03T08:05:37.081Z,36.84
2022-08-03T08:08:06.766Z,36.98
2022-08-03T08:10:35.509Z,36.44
2022-08-03T08:13:04.991Z,35.30
2022-08-03T08:15:33.226Z,35.70
2022-08-03T08:18:02.566Z,35.46
2022-08-03T08:20:36.527Z,34.59
2022-08-03T08:23:27.604Z,34.75
2022-08-03T08:25:57.102Z,34.47
2022-08-03T08:28:32.249Z,34.82
2022-08-03T08:31:02.372Z,34.02
2022-08-03T08:34:02.646Z,33.16
2022-08-03T08:36:19.404Z,32.37
2022-08-03T08:38:48.015Z,31.82
2022-08-03T08:41:17.432Z,31.37
2022-08-03T08:43:45.633Z,31.37
2022-08-03T08:46:23.238Z,31.43
2022-08-03T08:48:54.507Z,32.16
2022-08-03T08:51:54.758Z,30.30
2022-08-03T08:54:22.900Z,31.27
2022-08-03T08:56:53.555Z,30.44
2022-08-03T08:59:22.879Z,29.69
2022-08-03T09:01:58.563Z,29.80
2022-08-03T09:04:29.546Z,28.95
2022-08-03T09:07:18.740Z,28.88
2022-08-03T09:10:10.469Z,28.73
2022-08-03T09:12:47.420Z,27.80
2022-08-03T09:15:24.518Z,28.30
2022-08-03T09:17:59.597Z,28.75
2022-08-03T09:20:32.370Z,27.90
2022-08-03T09:23:44.590Z,28.97
2022-08-03T09:26:00.083Z,27.75
2022-08-03T09:29:00.595Z,27.17
2022-08-03T09:31:35.895Z,27.20
2022-08-03T09:34:11.140Z,26.36
2022-08-03T09:36:43.041Z,26.56
2022-08-03T09:39:18.004Z,26.16
2022-08-03T09:42:06.818Z,25.85
2022-08-03T09:44:42.285Z,25.56
2022-08-03T09:47:13.101Z,26.57
2022-08-03T09:49:55.356Z,25.21
2022-08-03T09:52:39.163Z,24.15
2022-08-03T09:56:33.818Z,25.73
2022-08-03T09:58:12.813Z,24.65
2022-08-03T10:01:07.969Z,23.22
2022-08-03T10:04:03.888Z,24.59
2022-08-03T10:06:33.129Z,23.36
2022-08-03T10:09:11.081Z,24.07
2022-08-03T10:11:42.627Z,24.49
2022-08-03T10:14:19.633Z,24.16
2022-08-03T10:16:49.499Z,24.07
2022-08-03T10:19:18.290Z,23.99
2022-08-03T10:22:01.195Z,25.05
2022-08-03T10:24:34.249Z,23.76
2022-08-03T10:27:07.536Z,25.20
2022-08-03T10:29:45.770Z,24.92
2022-08-03T10:32:38.323Z,25.67
2022-08-03T10:35:19.857Z,24.93
2022-08-03T10:37:59.123Z,24.24
2022-08-03T10:40:54.689Z,26.00
2022-08-03T10:43:49.107Z,23.62
2022-08-03T10:46:21.318Z,23.14
2022-08-03T10:48:52.832Z,23.02
2022-08-03T10:51:23.267Z,24.26
2022-08-03T10:53:55.074Z,24.16
2022-08-03T10:56:51.480Z,23.75
2022-08-03T10:59:41.058Z,23.41
2022-08-03T11:02:10.030Z,22.64
2022-08-03T11:04:38.348Z,21.97
2022-08-03T11:07:25.617Z,22.18
2022-08-03T11:09:56.309Z,22.41
2022-08-03T11:12:30.037Z,23.34
2022-08-03T11:15:07.629Z,22.57
2022-08-03T11:17:46.270Z,22.58
2022-08-03T11:20:46.972Z,21.87
2022-08-03T11:23:18.223Z,22.04
2022-08-03T11:26:13.848Z,23.34
2022-08-03T11:28:48.226Z,22.76
2022-08-03T11:31:39.587Z,24.83
2022-08-03T11:34:14.253Z,24.69
2022-08-03T11:37:22.637Z,23.32
2022-08-03T11:39:54.809Z,22.67
2022-08-03T11:42:23.239Z,23.67
2022-08-03T11:44:54.127Z,24.37
2022-08-03T11:47:27.035Z,22.63
2022-08-03T11:50:00.377Z,23.44
2022-08-03T11:52:36.733Z,22.56
2022-08-03T11:55:11.729Z,22.29
2022-08-03T11:59:10.818Z,23.74
2022-08-03T12:00:32.346Z,23.02
2022-08-03T12:03:14.310Z,22.71
2022-08-03T12:05:53.377Z,22.56
2022-08-03T12:08:34.259Z,22.45
2022-08-03T12:11:06.757Z,24.04
2022-08-03T12:14:44.815Z,23.43
2022-08-03T12:16:38.070Z,23.08
2022-08-03T12:19:07.121Z,22.55
2022-08-03T12:21:35.532Z,22.89
2022-08-03T12:24:05.599Z,23.09
2022-08-03T12:26:57.196Z,23.03
2022-08-03T12:29:28.442Z,22.16
2022-08-03T12:31:56.981Z,21.53
2022-08-03T12:34:47.210Z,22.09
2022-08-03T12:37:23.546Z,20.63
2022-08-03T12:40:02.308Z,21.90
2022-08-03T12:42:36.922Z,22.90
2022-08-03T12:45:28.918Z,22.61
2022-08-03T12:48:02.364Z,22.22
2022-08-03T12:50:32.789Z,22.39
2022-08-03T12:53:05.333Z,22.55
2022-08-03T12:55:57.116Z,22.44
2022-08-03T12:58:36.028Z,22.42
2022-08-03T13:01:09.900Z,23.38
2022-08-03T13:03:49.909Z,22.99
2022-08-03T13:06:23.269Z,23.03
2022-08-03T13:09:06.389Z,21.40
2022-08-03T13:11:58.166Z,20.92
2022-08-03T13:14:23.948Z,21.47
2022-08-03T13:16:52.339Z,21.96
2022-08-03T13:19:20.566Z,22.01
2022-08-03T13:22:01.632Z,21.71
2022-08-03T13:24:33.851Z,22.30
2022-08-03T13:27:22.559Z,21.67
2022-08-03T13:29:51.329Z,22.33
2022-08-03T13:32:20.717Z,21.75
2022-08-03T13:34:49.422Z,21.14
2022-08-03T13:37:17.613Z,22.38
2022-08-03T13:39:59.867Z,21.84
2022-08-03T13:42:34.574Z,22.79
2022-08-03T13:45:05.215Z,22.12
2022-08-03T13:47:33.483Z,22.00
2022-08-03T13:50:03.092Z,21.64
2022-08-03T13:52:35.017Z,21.75
2022-08-03T13:55:06.583Z,22.11
2022-08-03T13:58:18.928Z,22.72
2022-08-03T14:00:28.190Z,21.23
2022-08-03T14:03:06.631Z,21.46
2022-08-03T14:05:41.832Z,20.99
2022-08-03T14:08:11.012Z,21.16
2022-08-03T14:10:44.556Z,22.42
2022-08-03T14:13:17.679Z,21.96
2022-08-03T14:15:51.212Z,22.11
2022-08-03T14:18:28.523Z,21.45
2022-08-03T14:21:05.564Z,21.34
2022-08-03T14:23:37.813Z,20.87
2022-08-03T14:26:08.233Z,21.42
2022-08-03T14:28:36.650Z,20.79
2022-08-03T14:31:08.427Z,20.22
2022-08-03T14:33:53.562Z,20.85
2022-08-03T14:36:21.859Z,20.52
2022-08-03T14:38:50.147Z,21.26
2022-08-03T14:41:20.177Z,22.30
2022-08-03T14:44:02.022Z,21.90
2022-08-03T14:46:32.291Z,21.30
2022-08-03T14:50:34.483Z,20.68
2022-08-03T14:51:53.329Z,20.84
2022-08-03T14:54:23.015Z,21.42
2022-08-03T14:56:51.910Z,21.60
2022-08-03T14:59:20.100Z,22.58
2022-08-03T15:02:04.973Z,21.70
2022-08-03T15:04:36.509Z,22.06
2022-08-03T15:07:05.303Z,21.37
2022-08-03T15:09:34.187Z,22.23
2022-08-03T15:12:02.386Z,21.11
2022-08-03T15:14:38.650Z,21.58
2022-08-03T15:17:07.304Z,21.79
2022-08-03T15:20:03.190Z,21.57
2022-08-03T15:22:24.985Z,21.80
2022-08-03T15:26:01.721Z,21.85
2022-08-03T15:28:03.983Z,20.95
2022-08-03T15:30:36.896Z,21.16
2022-08-03T15:33:05.786Z,21.77
2022-08-03T15:35:34.151Z,21.99
2022-08-03T15:38:07.315Z,22.64
2022-08-03T15:40:38.084Z,21.91
2022-08-03T15:43:07.610Z,22.29
2022-08-03T15:45:37.143Z,21.79
2022-08-03T15:48:06.427Z,21.99
2022-08-03T15:50:34.785Z,22.66
2022-08-03T15:53:03.810Z,22.70
2022-08-03T15:55:32.845Z,21.94
2022-08-03T15:59:03.480Z,23.38
2022-08-03T16:00:49.588Z,22.56
2022-08-03T16:03:17.775Z,22.69
2022-08-03T16:05:45.954Z,22.21
2022-08-03T16:08:14.256Z,22.84
2022-08-03T16:10:42.599Z,21.94
2022-08-03T16:13:10.837Z,22.87
2022-08-03T16:15:39.228Z,22.73
2022-08-03T16:18:07.976Z,23.19
2022-08-03T16:20:36.182Z,22.56
2022-08-03T16:23:10.565Z,22.40
2022-08-03T16:25:42.409Z,23.67
2022-08-03T16:28:14.216Z,22.50
2022-08-03T16:30:46.614Z,22.67
2022-08-03T16:33:29.580Z,22.58
2022-08-03T16:35:59.413Z,22.68
2022-08-03T16:38:27.723Z,21.93
2022-08-03T16:40:55.919Z,22.33
2022-08-03T16:43:24.812Z,21.89
2022-08-03T16:45:53.126Z,23.08
2022-08-03T16:48:21.675Z,23.10
2022-08-03T16:50:50.005Z,22.84
2022-08-03T16:53:18.728Z,22.12
2022-08-03T16:56:03.709Z,22.70
2022-08-03T16:58:42.075Z,22.30
2022-08-03T17:01:22.266Z,21.59
2022-08-03T17:04:02.412Z,23.52
2022-08-03T17:06:45.112Z,23.41
2022-08-03T17:09:18.998Z,23.33
2022-08-03T17:11:51.335Z,23.02
2022-08-03T17:14:28.410Z,22.65
2022-08-03T17:17:01.639Z,22.37
2022-08-03T17:19:32.831Z,23.08
2022-08-03T17:22:15.989Z,23.96
2022-08-03T17:24:51.058Z,23.68
2022-08-03T17:28:50.617Z,23.95
2022-08-03T17:30:20.232Z,23.50
2022-08-03T17:32:56.677Z,24.44
2022-08-03T17:35:35.516Z,24.04
2022-08-03T17:38:11.908Z,23.77
2022-08-03T17:40:50.034Z,23.97
2022-08-03T17:44:14.442Z,23.86
2022-08-03T17:46:10.822Z,23.77
2022-08-03T17:48:42.092Z,24.57
2022-08-03T17:51:46.535Z,24.39
2022-08-03T17:55:55.443Z,25.08
2022-08-03T17:58:05.787Z,24.46
2022-08-03T18:00:59.572Z,24.81
2022-08-03T18:03:57.933Z,24.47
2022-08-03T18:06:34.597Z,25.51
2022-08-03T18:09:05.333Z,25.54
2022-08-03T18:11:58.075Z,24.99
2022-08-03T18:14:57.726Z,25.17
2022-08-03T18:17:55.904Z,25.71
2022-08-03T18:20:33.030Z,25.93
2022-08-03T18:23:07.151Z,26.13
2022-08-03T18:25:45.251Z,27.00
2022-08-03T18:28:19.793Z,26.36
2022-08-03T18:30:55.118Z,27.51
2022-08-03T18:34:17.503Z,27.40
2022-08-03T18:39:12.407Z,28.57
2022-08-03T18:41:44.565Z,28.21
2022-08-03T18:44:46.476Z,28.71
2022-08-03T18:47:23.264Z,28.79
2022-08-03T18:50:13.858Z,29.35
2022-08-03T18:53:22.585Z,29.38
2022-08-03T18:56:38.279Z,29.66
2022-08-03T18:59:44.557Z,29.77
2022-08-03T19:02:42.367Z,30.90
2022-08-03T19:05:23.998Z,30.38
2022-08-03T19:08:33.718Z,31.15
2022-08-03T19:11:07.884Z,31.29
2022-08-03T19:13:50.192Z,31.26
2022-08-03T19:16:35.353Z,31.61
2022-08-03T19:19:14.438Z,32.12
2022-08-03T19:21:45.954Z,32.48
2022-08-03T19:24:23.316Z,33.58
2022-08-03T19:26:56.042Z,33.39
2022-08-03T19:29:25.252Z,33.37
2022-08-03T19:32:21.360Z,33.75
2022-08-03T19:34:51.744Z,34.11
2022-08-03T19:37:22.393Z,35.06
2022-08-03T19:39:56.547Z,34.35
2022-08-03T19:42:32.136Z,34.45
2022-08-03T19:45:13.939Z,34.30
2022-08-03T19:47:56.504Z,34.75
2022-08-03T19:50:29.950Z,34.04
2022-08-03T19:53:01.869Z,35.23
2022-08-03T19:55:32.803Z,35.66
2022-08-03T19:58:05.768Z,35.92
2022-08-03T20:00:40.412Z,35.95
2022-08-03T20:03:22.176Z,35.61
2022-08-03T20:05:54.269Z,35.48
2022-08-03T20:08:24.164Z,35.54
2022-08-03T20:10:53.927Z,35.89
2022-08-03T20:13:22.206Z,35.55
2022-08-03T20:15:56.593Z,35.66
2022-08-03T20:18:25.367Z,35.92
2022-08-03T20:20:56.541Z,35.49
2022-08-03T20:23:28.087Z,36.34
2022-08-03T20:26:09.614Z,36.68
2022-08-03T20:28:52.146Z,37.79
2022-08-03T20:31:32.078Z,38.07
2022-08-03T20:34:06.486Z,38.53
2022-08-03T20:36:34.678Z,38.37
2022-08-03T20:39:07.765Z,38.58
2022-08-03T20:41:37.316Z,38.43
2022-08-03T20:44:06.711Z,38.70
2022-08-03T20:46:50.274Z,38.37
2022-08-03T20:49:24.106Z,39.35
2022-08-03T20:51:53.622Z,38.57
2022-08-03T20:54:30.703Z,38.41
2022-08-03T20:57:03.885Z,38.76
2022-08-03T20:59:47.589Z,39.43
2022-08-03T21:05:10.354Z,40.95
2022-08-03T21:08:05.139Z,40.47
2022-08-03T21:10:42.039Z,40.41
2022-08-03T21:12:58.650Z,27.59
2022-08-03T21:13:07.897Z,40.33
2022-08-03T21:13:30.041Z,40.86
2022-08-03T21:16:11.551Z,41.18
2022-08-03T21:18:51.859Z,41.75
2022-08-03T21:21:23.940Z,41.96
2022-08-03T21:23:55.869Z,41.83
2022-08-03T21:26:27.197Z,41.95
2022-08-03T21:28:57.061Z,42.53
2022-08-03T21:31:26.710Z,41.89
2022-08-03T21:33:58.282Z,41.95
2022-08-03T21:36:28.537Z,41.84
2022-08-03T21:38:58.659Z,42.30
2022-08-03T21:41:30.746Z,43.18
2022-08-03T21:44:00.800Z,43.00
2022-08-03T21:46:36.050Z,43.08
2022-08-03T21:50:07.321Z,43.23
2022-08-03T21:52:00.956Z,42.90
2022-08-03T21:54:44.156Z,43.76
2022-08-03T21:57:22.441Z,44.02
2022-08-03T22:00:00.505Z,43.78
2022-08-03T22:02:32.503Z,43.79
2022-08-03T22:05:04.694Z,43.83
2022-08-03T22:07:35.060Z,44.02
2022-08-03T22:10:06.476Z,44.11
2022-08-03T22:12:35.523Z,43.59
2022-08-03T22:15:09.353Z,43.46
2022-08-03T22:17:55.007Z,43.46
2022-08-03T22:20:25.817Z,43.68
2022-08-03T22:22:57.340Z,44.28
2022-08-03T22:25:39.335Z,44.26
2022-08-03T22:28:12.266Z,44.83
2022-08-03T22:30:42.702Z,45.58
2022-08-03T22:33:14.495Z,45.88
2022-08-03T22:35:49.085Z,45.63
2022-08-03T22:38:18.913Z,46.36
2022-08-03T22:40:52.177Z,45.99
2022-08-03T22:43:28.165Z,45.64
2022-08-03T22:46:08.970Z,45.53
2022-08-03T22:48:40.982Z,45.28
2022-08-03T22:51:10.632Z,45.41
2022-08-03T22:53:40.179Z,45.33
2022-08-03T22:56:08.983Z,45.33
2022-08-03T22:58:37.456Z,45.32
2022-08-03T23:01:11.823Z,45.08
2022-08-03T23:04:02.062Z,46.22
2022-08-03T23:06:38.064Z,46.71
2022-08-03T23:09:11.928Z,46.58
2022-08-03T23:11:45.675Z,46.99
2022-08-03T23:14:18.729Z,46.23
2022-08-03T23:16:50.525Z,46.49
2022-08-03T23:19:26.110Z,48.30
2022-08-03T23:22:03.427Z,48.29
2022-08-03T23:24:36.696Z,47.92
2022-08-03T23:27:07.385Z,47.72
2022-08-03T23:29:38.798Z,47.03
2022-08-03T23:32:07.511Z,48.20
2022-08-03T23:34:58.467Z,48.16
2022-08-03T23:37:27.016Z,49.15
2022-08-03T23:39:57.696Z,49.05
2022-08-03T23:42:27.365Z,49.40
2022-08-03T23:44:59.480Z,49.31
2022-08-03T23:47:46.374Z,50.94
2022-08-03T23:50:16.873Z,49.87
2022-08-03T23:53:09.772Z,49.51
2022-08-03T23:56:13.291Z,52.16
2022-08-03T23:58:54.375Z,51.67
